sensor_id;sensor_type;location;lat;lon;timestamp;P1;durP1;ratioP1;P2;durP2;ratioP2
25365;SDS011;13315;48.274;-1.900;2022-07-06T00:01:43;721.15;;;591.28;;
25365;SDS011;13315;48.274;-1.900;2022-07-06T00:04:09;715.47;;;586.65;;
25365;SDS011;13315;48.274;-1.900;2022-07-06T00:06:35;714.03;;;586.13;;
25365;SDS011;13315;48.274;-1.900;2022-07-06T00:09:02;695.08;;;582.60;;
25365;SDS011;13315;48.274;-1.900;2022-07-06T00:11:28;735.40;;;591.05;;
25365;SDS011;13315;48.274;-1.900;2022-07-06T00:13:54;737.20;;;585.65;;
25365;SDS011;13315;48.274;-1.900;2022-07-06T00:16:21;733.85;;;589.03;;
25365;SDS011;13315;48.274;-1.900;2022-07-06T00:18:48;722.90;;;589.55;;
25365;SDS011;13315;48.274;-1.900;2022-07-06T00:21:14;690.35;;;576.95;;
25365;SDS011;13315;48.274;-1.900;2022-07-06T00:23:41;688.97;;;576.03;;
25365;SDS011;13315;48.274;-1.900;2022-07-06T00:26:07;685.08;;;568.97;;
25365;SDS011;13315;48.274;-1.900;2022-07-06T00:28:33;688.00;;;569.45;;
25365;SDS011;13315;48.274;-1.900;2022-07-06T00:31:00;726.80;;;579.92;;
25365;SDS011;13315;48.274;-1.900;2022-07-06T00:33:26;738.50;;;579.88;;
25365;SDS011;13315;48.274;-1.900;2022-07-06T00:35:52;741.15;;;580.40;;
25365;SDS011;13315;48.274;-1.900;2022-07-06T00:38:18;737.35;;;579.55;;
25365;SDS011;13315;48.274;-1.900;2022-07-06T00:40:44;703.50;;;573.65;;
25365;SDS011;13315;48.274;-1.900;2022-07-06T00:43:10;708.08;;;577.65;;
25365;SDS011;13315;48.274;-1.900;2022-07-06T00:45:36;713.90;;;575.85;;
25365;SDS011;13315;48.274;-1.900;2022-07-06T00:48:03;760.53;;;591.72;;
25365;SDS011;13315;48.274;-1.900;2022-07-06T00:50:29;783.40;;;596.80;;
25365;SDS011;13315;48.274;-1.900;2022-07-06T00:52:56;775.88;;;594.55;;
25365;SDS011;13315;48.274;-1.900;2022-07-06T00:55:26;790.58;;;600.50;;
25365;SDS011;13315;48.274;-1.900;2022-07-06T00:57:53;790.78;;;599.70;;
25365;SDS011;13315;48.274;-1.900;2022-07-06T01:00:21;786.53;;;608.72;;
25365;SDS011;13315;48.274;-1.900;2022-07-06T01:02:47;762.85;;;600.90;;
25365;SDS011;13315;48.274;-1.900;2022-07-06T01:05:14;760.75;;;596.13;;
25365;SDS011;13315;48.274;-1.900;2022-07-06T01:07:41;753.85;;;601.40;;
25365;SDS011;13315;48.274;-1.900;2022-07-06T01:10:08;759.78;;;603.75;;
25365;SDS011;13315;48.274;-1.900;2022-07-06T01:12:35;760.35;;;605.65;;
25365;SDS011;13315;48.274;-1.900;2022-07-06T01:15:05;784.72;;;618.30;;
25365;SDS011;13315;48.274;-1.900;2022-07-06T01:17:32;778.70;;;619.40;;
25365;SDS011;13315;48.274;-1.900;2022-07-06T01:20:07;777.75;;;611.65;;
25365;SDS011;13315;48.274;-1.900;2022-07-06T01:22:33;782.80;;;617.75;;
25365;SDS011;13315;48.274;-1.900;2022-07-06T01:24:59;755.97;;;614.03;;
25365;SDS011;13315;48.274;-1.900;2022-07-06T01:27:25;759.67;;;613.95;;
25365;SDS011;13315;48.274;-1.900;2022-07-06T01:29:51;759.05;;;614.78;;
25365;SDS011;13315;48.274;-1.900;2022-07-06T01:32:17;728.70;;;602.75;;
25365;SDS011;13315;48.274;-1.900;2022-07-06T01:34:43;722.58;;;602.47;;
25365;SDS011;13315;48.274;-1.900;2022-07-06T01:37:10;730.33;;;602.55;;
25365;SDS011;13315;48.274;-1.900;2022-07-06T01:39:36;764.40;;;613.88;;
25365;SDS011;13315;48.274;-1.900;2022-07-06T01:42:02;763.58;;;616.65;;
25365;SDS011;13315;48.274;-1.900;2022-07-06T01:44:28;771.38;;;620.42;;
25365;SDS011;13315;48.274;-1.900;2022-07-06T01:46:54;761.30;;;617.95;;
25365;SDS011;13315;48.274;-1.900;2022-07-06T01:49:21;750.88;;;615.13;;
25365;SDS011;13315;48.274;-1.900;2022-07-06T01:51:47;722.92;;;615.08;;
25365;SDS011;13315;48.274;-1.900;2022-07-06T01:54:13;722.85;;;611.25;;
25365;SDS011;13315;48.274;-1.900;2022-07-06T01:56:39;714.85;;;610.33;;
25365;SDS011;13315;48.274;-1.900;2022-07-06T01:59:05;756.17;;;627.50;;
25365;SDS011;13315;48.274;-1.900;2022-07-06T02:01:31;740.05;;;618.33;;
25365;SDS011;13315;48.274;-1.900;2022-07-06T02:03:57;730.50;;;619.83;;
25365;SDS011;13315;48.274;-1.900;2022-07-06T02:06:23;739.92;;;622.85;;
25365;SDS011;13315;48.274;-1.900;2022-07-06T02:08:49;721.60;;;615.70;;
25365;SDS011;13315;48.274;-1.900;2022-07-06T02:11:17;735.63;;;613.40;;
25365;SDS011;13315;48.274;-1.900;2022-07-06T02:13:43;760.33;;;615.05;;
25365;SDS011;13315;48.274;-1.900;2022-07-06T02:16:09;781.28;;;616.83;;
25365;SDS011;13315;48.274;-1.900;2022-07-06T02:18:35;837.00;;;629.88;;
25365;SDS011;13315;48.274;-1.900;2022-07-06T02:21:02;832.65;;;623.83;;
25365;SDS011;13315;48.274;-1.900;2022-07-06T02:23:29;837.53;;;624.92;;
25365;SDS011;13315;48.274;-1.900;2022-07-06T02:25:55;848.88;;;629.15;;
25365;SDS011;13315;48.274;-1.900;2022-07-06T02:28:21;802.75;;;611.40;;
25365;SDS011;13315;48.274;-1.900;2022-07-06T02:30:47;801.13;;;610.72;;
25365;SDS011;13315;48.274;-1.900;2022-07-06T02:33:13;800.85;;;615.17;;
25365;SDS011;13315;48.274;-1.900;2022-07-06T02:35:39;810.70;;;614.75;;
25365;SDS011;13315;48.274;-1.900;2022-07-06T02:38:08;831.35;;;623.88;;
25365;SDS011;13315;48.274;-1.900;2022-07-06T02:40:34;821.90;;;618.65;;
25365;SDS011;13315;48.274;-1.900;2022-07-06T02:43:00;822.72;;;625.10;;
25365;SDS011;13315;48.274;-1.900;2022-07-06T02:45:27;828.30;;;623.38;;
25365;SDS011;13315;48.274;-1.900;2022-07-06T02:47:53;795.88;;;608.13;;
25365;SDS011;13315;48.274;-1.900;2022-07-06T02:50:21;784.55;;;603.03;;
25365;SDS011;13315;48.274;-1.900;2022-07-06T02:52:47;780.83;;;601.05;;
25365;SDS011;13315;48.274;-1.900;2022-07-06T02:55:13;786.30;;;602.35;;
25365;SDS011;13315;48.274;-1.900;2022-07-06T02:57:39;811.25;;;615.90;;
25365;SDS011;13315;48.274;-1.900;2022-07-06T03:00:07;813.72;;;615.20;;
25365;SDS011;13315;48.274;-1.900;2022-07-06T03:02:34;821.60;;;617.72;;
25365;SDS011;13315;48.274;-1.900;2022-07-06T03:05:00;809.63;;;615.75;;
25365;SDS011;13315;48.274;-1.900;2022-07-06T03:07:26;794.80;;;608.03;;
25365;SDS011;13315;48.274;-1.900;2022-07-06T03:09:53;769.03;;;605.80;;
25365;SDS011;13315;48.274;-1.900;2022-07-06T03:12:19;763.90;;;605.83;;
25365;SDS011;13315;48.274;-1.900;2022-07-06T03:14:45;761.60;;;602.35;;
25365;SDS011;13315;48.274;-1.900;2022-07-06T03:17:11;801.92;;;618.30;;
25365;SDS011;13315;48.274;-1.900;2022-07-06T03:19:37;796.50;;;614.90;;
25365;SDS011;13315;48.274;-1.900;2022-07-06T03:22:03;786.55;;;609.97;;
25365;SDS011;13315;48.274;-1.900;2022-07-06T03:24:30;775.05;;;606.85;;
25365;SDS011;13315;48.274;-1.900;2022-07-06T03:26:56;755.80;;;601.33;;
25365;SDS011;13315;48.274;-1.900;2022-07-06T03:29:22;741.47;;;598.65;;
25365;SDS011;13315;48.274;-1.900;2022-07-06T03:31:48;734.72;;;591.75;;
25365;SDS011;13315;48.274;-1.900;2022-07-06T03:34:14;732.67;;;595.25;;
25365;SDS011;13315;48.274;-1.900;2022-07-06T03:36:40;755.03;;;598.92;;
25365;SDS011;13315;48.274;-1.900;2022-07-06T03:39:07;757.55;;;600.33;;
25365;SDS011;13315;48.274;-1.900;2022-07-06T03:41:33;759.25;;;605.13;;
25365;SDS011;13315;48.274;-1.900;2022-07-06T03:43:59;763.13;;;602.75;;
25365;SDS011;13315;48.274;-1.900;2022-07-06T03:46:25;731.97;;;586.60;;
25365;SDS011;13315;48.274;-1.900;2022-07-06T03:48:51;728.08;;;587.92;;
25365;SDS011;13315;48.274;-1.900;2022-07-06T03:51:17;730.50;;;584.80;;
25365;SDS011;13315;48.274;-1.900;2022-07-06T03:53:43;760.95;;;596.25;;
25365;SDS011;13315;48.274;-1.900;2022-07-06T03:56:10;764.50;;;600.00;;
25365;SDS011;13315;48.274;-1.900;2022-07-06T03:58:57;716.67;;;577.90;;
25365;SDS011;13315;48.274;-1.900;2022-07-06T04:01:23;718.22;;;581.85;;
25365;SDS011;13315;48.274;-1.900;2022-07-06T04:03:50;709.10;;;576.00;;
25365;SDS011;13315;48.274;-1.900;2022-07-06T04:06:16;729.40;;;572.42;;
25365;SDS011;13315;48.274;-1.900;2022-07-06T04:08:42;771.03;;;581.35;;
25365;SDS011;13315;48.274;-1.900;2022-07-06T04:11:09;780.58;;;589.10;;
25365;SDS011;13315;48.274;-1.900;2022-07-06T04:13:35;789.80;;;588.00;;
25365;SDS011;13315;48.274;-1.900;2022-07-06T04:16:02;781.08;;;580.92;;
25365;SDS011;13315;48.274;-1.900;2022-07-06T04:18:28;767.03;;;577.50;;
25365;SDS011;13315;48.274;-1.900;2022-07-06T04:20:54;756.42;;;576.13;;
25365;SDS011;13315;48.274;-1.900;2022-07-06T04:23:22;747.23;;;575.97;;
25365;SDS011;13315;48.274;-1.900;2022-07-06T04:25:48;744.83;;;577.05;;
25365;SDS011;13315;48.274;-1.900;2022-07-06T04:28:14;794.55;;;593.58;;
25365;SDS011;13315;48.274;-1.900;2022-07-06T04:30:41;794.63;;;594.45;;
25365;SDS011;13315;48.274;-1.900;2022-07-06T04:33:07;804.40;;;596.75;;
25365;SDS011;13315;48.274;-1.900;2022-07-06T04:35:33;805.47;;;594.08;;
25365;SDS011;13315;48.274;-1.900;2022-07-06T04:37:59;771.85;;;584.83;;
25365;SDS011;13315;48.274;-1.900;2022-07-06T04:40:25;764.47;;;585.25;;
25365;SDS011;13315;48.274;-1.900;2022-07-06T04:42:51;765.45;;;581.30;;
25365;SDS011;13315;48.274;-1.900;2022-07-06T04:45:17;765.03;;;579.92;;
25365;SDS011;13315;48.274;-1.900;2022-07-06T04:47:43;793.90;;;593.47;;
25365;SDS011;13315;48.274;-1.900;2022-07-06T04:50:10;784.08;;;591.58;;
25365;SDS011;13315;48.274;-1.900;2022-07-06T04:52:36;786.00;;;588.20;;
25365;SDS011;13315;48.274;-1.900;2022-07-06T04:55:02;774.25;;;587.53;;
25365;SDS011;13315;48.274;-1.900;2022-07-06T04:57:30;753.53;;;580.50;;
25365;SDS011;13315;48.274;-1.900;2022-07-06T04:59:56;753.63;;;573.42;;
25365;SDS011;13315;48.274;-1.900;2022-07-06T05:02:23;760.88;;;574.63;;
25365;SDS011;13315;48.274;-1.900;2022-07-06T05:04:49;764.42;;;573.67;;
25365;SDS011;13315;48.274;-1.900;2022-07-06T05:07:15;793.25;;;591.63;;
25365;SDS011;13315;48.274;-1.900;2022-07-06T05:09:41;789.65;;;591.40;;
25365;SDS011;13315;48.274;-1.900;2022-07-06T05:12:08;796.13;;;588.55;;
25365;SDS011;13315;48.274;-1.900;2022-07-06T05:14:34;793.28;;;590.70;;
25365;SDS011;13315;48.274;-1.900;2022-07-06T05:17:01;754.00;;;577.45;;
25365;SDS011;13315;48.274;-1.900;2022-07-06T05:19:27;755.97;;;573.10;;
25365;SDS011;13315;48.274;-1.900;2022-07-06T05:21:53;755.55;;;569.15;;
25365;SDS011;13315;48.274;-1.900;2022-07-06T05:24:19;753.40;;;566.38;;
25365;SDS011;13315;48.274;-1.900;2022-07-06T05:26:46;773.13;;;579.95;;
25365;SDS011;13315;48.274;-1.900;2022-07-06T05:29:12;785.92;;;578.00;;
25365;SDS011;13315;48.274;-1.900;2022-07-06T05:31:38;797.67;;;584.75;;
25365;SDS011;13315;48.274;-1.900;2022-07-06T05:34:04;784.75;;;580.85;;
25365;SDS011;13315;48.274;-1.900;2022-07-06T05:36:30;767.00;;;573.28;;
25365;SDS011;13315;48.274;-1.900;2022-07-06T05:38:56;766.13;;;571.42;;
25365;SDS011;13315;48.274;-1.900;2022-07-06T05:41:22;773.33;;;570.58;;
25365;SDS011;13315;48.274;-1.900;2022-07-06T05:43:48;812.25;;;584.97;;
25365;SDS011;13315;48.274;-1.900;2022-07-06T05:46:15;804.17;;;579.65;;
25365;SDS011;13315;48.274;-1.900;2022-07-06T05:48:41;817.65;;;585.78;;
25365;SDS011;13315;48.274;-1.900;2022-07-06T05:51:25;780.15;;;572.25;;
25365;SDS011;13315;48.274;-1.900;2022-07-06T05:53:52;778.92;;;577.35;;
25365;SDS011;13315;48.274;-1.900;2022-07-06T05:56:18;815.25;;;592.13;;
25365;SDS011;13315;48.274;-1.900;2022-07-06T05:58:44;813.33;;;593.10;;
25365;SDS011;13315;48.274;-1.900;2022-07-06T06:01:10;821.45;;;592.80;;
25365;SDS011;13315;48.274;-1.900;2022-07-06T06:03:36;796.05;;;583.75;;
25365;SDS011;13315;48.274;-1.900;2022-07-06T06:06:02;775.13;;;583.97;;
25365;SDS011;13315;48.274;-1.900;2022-07-06T06:08:28;778.80;;;581.22;;
25365;SDS011;13315;48.274;-1.900;2022-07-06T06:10:54;782.47;;;576.03;;
25365;SDS011;13315;48.274;-1.900;2022-07-06T06:13:21;821.03;;;593.10;;
25365;SDS011;13315;48.274;-1.900;2022-07-06T06:15:47;823.58;;;597.60;;
25365;SDS011;13315;48.274;-1.900;2022-07-06T06:18:13;824.42;;;596.47;;
25365;SDS011;13315;48.274;-1.900;2022-07-06T06:20:42;828.47;;;593.50;;
25365;SDS011;13315;48.274;-1.900;2022-07-06T06:23:08;841.50;;;601.53;;
25365;SDS011;13315;48.274;-1.900;2022-07-06T06:25:36;810.85;;;593.33;;
25365;SDS011;13315;48.274;-1.900;2022-07-06T06:28:03;806.13;;;586.85;;
25365;SDS011;13315;48.274;-1.900;2022-07-06T06:30:29;810.38;;;584.25;;
25365;SDS011;13315;48.274;-1.900;2022-07-06T06:33:05;803.35;;;580.03;;
25365;SDS011;13315;48.274;-1.900;2022-07-06T06:35:32;799.75;;;578.50;;
25365;SDS011;13315;48.274;-1.900;2022-07-06T06:37:58;805.00;;;584.55;;
25365;SDS011;13315;48.274;-1.900;2022-07-06T06:40:24;805.65;;;584.35;;
25365;SDS011;13315;48.274;-1.900;2022-07-06T06:42:50;845.10;;;598.42;;
25365;SDS011;13315;48.274;-1.900;2022-07-06T06:45:16;846.15;;;600.95;;
25365;SDS011;13315;48.274;-1.900;2022-07-06T06:47:42;860.40;;;611.30;;
25365;SDS011;13315;48.274;-1.900;2022-07-06T06:50:08;837.38;;;609.13;;
25365;SDS011;13315;48.274;-1.900;2022-07-06T06:52:34;825.70;;;616.00;;
25365;SDS011;13315;48.274;-1.900;2022-07-06T06:55:01;819.38;;;607.58;;
25365;SDS011;13315;48.274;-1.900;2022-07-06T06:57:27;820.58;;;605.47;;
25365;SDS011;13315;48.274;-1.900;2022-07-06T06:59:54;871.33;;;635.28;;
25365;SDS011;13315;48.274;-1.900;2022-07-06T07:02:20;856.65;;;628.55;;
25365;SDS011;13315;48.274;-1.900;2022-07-06T07:04:46;850.45;;;623.15;;
25365;SDS011;13315;48.274;-1.900;2022-07-06T07:07:12;856.25;;;630.40;;
25365;SDS011;13315;48.274;-1.900;2022-07-06T07:09:38;827.70;;;623.90;;
25365;SDS011;13315;48.274;-1.900;2022-07-06T07:12:04;819.38;;;623.53;;
25365;SDS011;13315;48.274;-1.900;2022-07-06T07:14:31;819.85;;;622.50;;
25365;SDS011;13315;48.274;-1.900;2022-07-06T07:16:57;820.08;;;622.40;;
25365;SDS011;13315;48.274;-1.900;2022-07-06T07:19:23;865.08;;;638.00;;
25365;SDS011;13315;48.274;-1.900;2022-07-06T07:21:50;865.50;;;644.67;;
25365;SDS011;13315;48.274;-1.900;2022-07-06T07:24:16;857.17;;;641.55;;
25365;SDS011;13315;48.274;-1.900;2022-07-06T07:26:42;858.85;;;644.13;;
25365;SDS011;13315;48.274;-1.900;2022-07-06T07:29:08;827.22;;;635.10;;
25365;SDS011;13315;48.274;-1.900;2022-07-06T07:31:34;824.90;;;636.30;;
25365;SDS011;13315;48.274;-1.900;2022-07-06T07:34:00;825.58;;;639.60;;
25365;SDS011;13315;48.274;-1.900;2022-07-06T07:36:26;859.55;;;655.60;;
25365;SDS011;13315;48.274;-1.900;2022-07-06T07:38:52;858.25;;;660.25;;
25365;SDS011;13315;48.274;-1.900;2022-07-06T07:41:19;860.83;;;659.10;;
25365;SDS011;13315;48.274;-1.900;2022-07-06T07:43:45;860.80;;;661.40;;
25365;SDS011;13315;48.274;-1.900;2022-07-06T07:46:11;844.53;;;661.63;;
25365;SDS011;13315;48.274;-1.900;2022-07-06T07:48:37;829.70;;;663.55;;
25365;SDS011;13315;48.274;-1.900;2022-07-06T07:51:03;835.58;;;672.38;;
25365;SDS011;13315;48.274;-1.900;2022-07-06T07:53:29;834.15;;;673.88;;
25365;SDS011;13315;48.274;-1.900;2022-07-06T07:55:55;856.42;;;683.17;;
25365;SDS011;13315;48.274;-1.900;2022-07-06T07:58:21;871.78;;;691.13;;
25365;SDS011;13315;48.274;-1.900;2022-07-06T08:00:47;871.67;;;699.92;;
25365;SDS011;13315;48.274;-1.900;2022-07-06T08:03:13;863.78;;;695.13;;
25365;SDS011;13315;48.274;-1.900;2022-07-06T08:05:40;839.72;;;691.10;;
25365;SDS011;13315;48.274;-1.900;2022-07-06T08:08:06;837.30;;;697.38;;
25365;SDS011;13315;48.274;-1.900;2022-07-06T08:10:32;842.53;;;699.92;;
25365;SDS011;13315;48.274;-1.900;2022-07-06T08:12:58;887.92;;;717.58;;
25365;SDS011;13315;48.274;-1.900;2022-07-06T08:15:24;873.63;;;713.95;;
25365;SDS011;13315;48.274;-1.900;2022-07-06T08:17:50;880.58;;;718.67;;
25365;SDS011;13315;48.274;-1.900;2022-07-06T08:20:17;881.75;;;720.67;;
25365;SDS011;13315;48.274;-1.900;2022-07-06T08:22:43;860.33;;;721.42;;
25365;SDS011;13315;48.274;-1.900;2022-07-06T08:25:09;851.75;;;721.30;;
25365;SDS011;13315;48.274;-1.900;2022-07-06T08:27:35;856.47;;;726.13;;
25365;SDS011;13315;48.274;-1.900;2022-07-06T08:30:03;856.30;;;728.70;;
25365;SDS011;13315;48.274;-1.900;2022-07-06T08:32:29;851.47;;;733.67;;
25365;SDS011;13315;48.274;-1.900;2022-07-06T08:34:55;864.03;;;732.97;;
25365;SDS011;13315;48.274;-1.900;2022-07-06T08:37:21;877.55;;;735.90;;
25365;SDS011;13315;48.274;-1.900;2022-07-06T08:39:47;875.55;;;742.38;;
25365;SDS011;13315;48.274;-1.900;2022-07-06T08:42:14;853.05;;;734.53;;
25365;SDS011;13315;48.274;-1.900;2022-07-06T08:44:41;845.13;;;736.27;;
25365;SDS011;13315;48.274;-1.900;2022-07-06T08:47:08;846.50;;;733.40;;
25365;SDS011;13315;48.274;-1.900;2022-07-06T08:49:35;862.53;;;750.90;;
25365;SDS011;13315;48.274;-1.900;2022-07-06T08:52:02;867.80;;;760.05;;
25365;SDS011;13315;48.274;-1.900;2022-07-06T08:54:29;906.63;;;779.22;;
25365;SDS011;13315;48.274;-1.900;2022-07-06T08:56:55;914.10;;;779.55;;
25365;SDS011;13315;48.274;-1.900;2022-07-06T08:59:21;906.90;;;773.53;;
25365;SDS011;13315;48.274;-1.900;2022-07-06T09:01:47;905.95;;;767.72;;
25365;SDS011;13315;48.274;-1.900;2022-07-06T09:04:17;869.13;;;754.20;;
25365;SDS011;13315;48.274;-1.900;2022-07-06T09:06:45;868.28;;;750.03;;
25365;SDS011;13315;48.274;-1.900;2022-07-06T09:11:38;862.28;;;735.60;;
25365;SDS011;13315;48.274;-1.900;2022-07-06T09:14:04;866.30;;;748.15;;
25365;SDS011;13315;48.274;-1.900;2022-07-06T09:16:30;901.95;;;765.10;;
25365;SDS011;13315;48.274;-1.900;2022-07-06T09:18:57;911.83;;;777.88;;
25365;SDS011;13315;48.274;-1.900;2022-07-06T09:21:30;912.38;;;782.13;;
25365;SDS011;13315;48.274;-1.900;2022-07-06T09:26:28;900.08;;;766.83;;
25365;SDS011;13315;48.274;-1.900;2022-07-06T09:28:55;906.95;;;780.10;;
25365;SDS011;13315;48.274;-1.900;2022-07-06T09:31:21;913.92;;;791.13;;
25365;SDS011;13315;48.274;-1.900;2022-07-06T09:36:36;906.67;;;788.25;;
25365;SDS011;13315;48.274;-1.900;2022-07-06T09:39:15;883.65;;;785.53;;
25365;SDS011;13315;48.274;-1.900;2022-07-06T09:41:41;880.00;;;782.55;;
25365;SDS011;13315;48.274;-1.900;2022-07-06T09:44:09;878.67;;;781.70;;
25365;SDS011;13315;48.274;-1.900;2022-07-06T09:46:42;885.28;;;787.58;;
25365;SDS011;13315;48.274;-1.900;2022-07-06T09:49:08;880.90;;;783.80;;
25365;SDS011;13315;48.274;-1.900;2022-07-06T09:51:37;889.60;;;785.03;;
25365;SDS011;13315;48.274;-1.900;2022-07-06T09:54:07;909.97;;;793.55;;
25365;SDS011;13315;48.274;-1.900;2022-07-06T09:56:40;900.97;;;784.67;;
25365;SDS011;13315;48.274;-1.900;2022-07-06T09:59:10;875.15;;;776.83;;
25365;SDS011;13315;48.274;-1.900;2022-07-06T10:01:37;878.15;;;781.33;;
25365;SDS011;13315;48.274;-1.900;2022-07-06T10:04:03;905.60;;;788.08;;
25365;SDS011;13315;48.274;-1.900;2022-07-06T10:06:29;907.45;;;789.25;;
25365;SDS011;13315;48.274;-1.900;2022-07-06T10:08:55;905.88;;;792.58;;
25365;SDS011;13315;48.274;-1.900;2022-07-06T10:11:23;911.10;;;795.95;;
25365;SDS011;13315;48.274;-1.900;2022-07-06T10:13:50;888.17;;;787.33;;
25365;SDS011;13315;48.274;-1.900;2022-07-06T10:16:20;887.58;;;786.33;;
25365;SDS011;13315;48.274;-1.900;2022-07-06T10:18:47;878.03;;;780.83;;
25365;SDS011;13315;48.274;-1.900;2022-07-06T10:21:15;876.67;;;779.13;;
25365;SDS011;13315;48.274;-1.900;2022-07-06T10:23:41;878.22;;;781.25;;
25365;SDS011;13315;48.274;-1.900;2022-07-06T10:26:08;878.88;;;781.80;;
25365;SDS011;13315;48.274;-1.900;2022-07-06T10:28:35;910.33;;;792.10;;
25365;SDS011;13315;48.274;-1.900;2022-07-06T10:31:01;907.92;;;798.00;;
25365;SDS011;13315;48.274;-1.900;2022-07-06T10:33:28;909.22;;;799.15;;
25365;SDS011;13315;48.274;-1.900;2022-07-06T10:35:54;914.45;;;801.95;;
25365;SDS011;13315;48.274;-1.900;2022-07-06T10:38:21;893.08;;;791.22;;
25365;SDS011;13315;48.274;-1.900;2022-07-06T10:40:58;906.83;;;795.47;;
25365;SDS011;13315;48.274;-1.900;2022-07-06T10:43:34;913.33;;;792.17;;
25365;SDS011;13315;48.274;-1.900;2022-07-06T10:46:18;914.58;;;797.38;;
25365;SDS011;13315;48.274;-1.900;2022-07-06T10:48:45;887.50;;;790.33;;
25365;SDS011;13315;48.274;-1.900;2022-07-06T10:51:12;907.15;;;809.05;;
25365;SDS011;13315;48.274;-1.900;2022-07-06T10:53:39;908.95;;;810.28;;
25365;SDS011;13315;48.274;-1.900;2022-07-06T10:56:07;932.53;;;829.90;;
25365;SDS011;13315;48.274;-1.900;2022-07-06T10:58:38;935.97;;;831.55;;
25365;SDS011;13315;48.274;-1.900;2022-07-06T11:01:08;942.58;;;839.85;;
25365;SDS011;13315;48.274;-1.900;2022-07-06T11:03:38;947.60;;;843.95;;
25365;SDS011;13315;48.274;-1.900;2022-07-06T11:06:05;937.45;;;834.95;;
25365;SDS011;13315;48.274;-1.900;2022-07-06T11:13:54;918.95;;;820.17;;
25365;SDS011;13315;48.274;-1.900;2022-07-06T11:16:22;924.47;;;825.25;;
25365;SDS011;13315;48.274;-1.900;2022-07-06T11:18:49;913.33;;;814.92;;
25365;SDS011;13315;48.274;-1.900;2022-07-06T11:21:16;916.08;;;817.70;;
25365;SDS011;13315;48.274;-1.900;2022-07-06T11:23:43;922.40;;;823.65;;
25365;SDS011;13315;48.274;-1.900;2022-07-06T11:26:11;922.80;;;824.00;;
25365;SDS011;13315;48.274;-1.900;2022-07-06T11:28:37;930.72;;;828.83;;
25365;SDS011;13315;48.274;-1.900;2022-07-06T11:31:03;927.65;;;825.50;;
25365;SDS011;13315;48.274;-1.900;2022-07-06T11:33:30;928.97;;;826.65;;
25365;SDS011;13315;48.274;-1.900;2022-07-06T11:38:57;932.85;;;830.28;;
25365;SDS011;13315;48.274;-1.900;2022-07-06T11:41:24;930.50;;;830.42;;
25365;SDS011;13315;48.274;-1.900;2022-07-06T11:43:50;930.83;;;831.78;;
25365;SDS011;13315;48.274;-1.900;2022-07-06T11:48:49;920.35;;;821.70;;
25365;SDS011;13315;48.274;-1.900;2022-07-06T11:51:16;923.35;;;824.40;;
25365;SDS011;13315;48.274;-1.900;2022-07-06T11:53:43;930.17;;;830.97;;
25365;SDS011;13315;48.274;-1.900;2022-07-06T11:56:09;940.83;;;838.45;;
25365;SDS011;13315;48.274;-1.900;2022-07-06T11:58:35;936.28;;;834.85;;
25365;SDS011;13315;48.274;-1.900;2022-07-06T12:01:10;949.00;;;846.22;;
25365;SDS011;13315;48.274;-1.900;2022-07-06T12:03:37;948.25;;;845.15;;
25365;SDS011;13315;48.274;-1.900;2022-07-06T12:06:04;945.78;;;842.63;;
25365;SDS011;13315;48.274;-1.900;2022-07-06T12:08:31;948.97;;;846.08;;
25365;SDS011;13315;48.274;-1.900;2022-07-06T12:10:59;956.25;;;852.60;;
25365;SDS011;13315;48.274;-1.900;2022-07-06T12:13:25;931.92;;;831.83;;
25365;SDS011;13315;48.274;-1.900;2022-07-06T12:15:51;924.17;;;825.20;;
25365;SDS011;13315;48.274;-1.900;2022-07-06T12:18:17;924.65;;;825.75;;
25365;SDS011;13315;48.274;-1.900;2022-07-06T12:20:43;927.58;;;828.38;;
25365;SDS011;13315;48.274;-1.900;2022-07-06T12:23:09;941.42;;;838.70;;
25365;SDS011;13315;48.274;-1.900;2022-07-06T12:25:36;943.05;;;840.28;;
25365;SDS011;13315;48.274;-1.900;2022-07-06T12:28:03;948.90;;;845.70;;
25365;SDS011;13315;48.274;-1.900;2022-07-06T12:30:29;955.50;;;852.47;;
25365;SDS011;13315;48.274;-1.900;2022-07-06T12:33:14;947.90;;;848.10;;
25365;SDS011;13315;48.274;-1.900;2022-07-06T12:35:40;952.42;;;849.55;;
25365;SDS011;13315;48.274;-1.900;2022-07-06T12:38:07;953.03;;;850.03;;
25365;SDS011;13315;48.274;-1.900;2022-07-06T12:40:34;954.70;;;851.38;;
25365;SDS011;13315;48.274;-1.900;2022-07-06T12:43:01;949.83;;;847.28;;
25365;SDS011;13315;48.274;-1.900;2022-07-06T12:45:28;940.90;;;840.33;;
25365;SDS011;13315;48.274;-1.900;2022-07-06T12:47:57;938.30;;;838.95;;
25365;SDS011;13315;48.274;-1.900;2022-07-06T12:50:30;938.22;;;838.67;;
25365;SDS011;13315;48.274;-1.900;2022-07-06T12:52:57;947.58;;;846.92;;
25365;SDS011;13315;48.274;-1.900;2022-07-06T12:55:28;944.50;;;844.53;;
25365;SDS011;13315;48.274;-1.900;2022-07-06T12:57:54;940.20;;;840.42;;
25365;SDS011;13315;48.274;-1.900;2022-07-06T13:00:20;940.80;;;841.00;;
25365;SDS011;13315;48.274;-1.900;2022-07-06T13:02:47;936.65;;;837.10;;
25365;SDS011;13315;48.274;-1.900;2022-07-06T13:05:18;938.30;;;838.67;;
25365;SDS011;13315;48.274;-1.900;2022-07-06T13:07:45;952.60;;;849.45;;
25365;SDS011;13315;48.274;-1.900;2022-07-06T13:10:12;953.53;;;850.22;;
25365;SDS011;13315;48.274;-1.900;2022-07-06T13:12:38;954.30;;;851.20;;
25365;SDS011;13315;48.274;-1.900;2022-07-06T13:15:06;953.47;;;850.22;;
25365;SDS011;13315;48.274;-1.900;2022-07-06T13:17:33;946.05;;;843.63;;
25365;SDS011;13315;48.274;-1.900;2022-07-06T13:19:59;940.70;;;840.58;;
25365;SDS011;13315;48.274;-1.900;2022-07-06T13:22:26;938.13;;;838.40;;
25365;SDS011;13315;48.274;-1.900;2022-07-06T13:24:52;940.83;;;841.20;;
25365;SDS011;13315;48.274;-1.900;2022-07-06T13:27:18;933.80;;;834.47;;
25365;SDS011;13315;48.274;-1.900;2022-07-06T13:29:44;952.85;;;849.90;;
25365;SDS011;13315;48.274;-1.900;2022-07-06T13:32:10;956.50;;;852.78;;
25365;SDS011;13315;48.274;-1.900;2022-07-06T13:34:36;955.08;;;852.33;;
25365;SDS011;13315;48.274;-1.900;2022-07-06T13:37:03;961.88;;;858.72;;
25365;SDS011;13315;48.274;-1.900;2022-07-06T13:39:30;953.38;;;852.92;;
25365;SDS011;13315;48.274;-1.900;2022-07-06T13:41:56;956.38;;;855.83;;
25365;SDS011;13315;48.274;-1.900;2022-07-06T13:44:22;961.05;;;860.45;;
25365;SDS011;13315;48.274;-1.900;2022-07-06T13:46:48;966.60;;;865.45;;
25365;SDS011;13315;48.274;-1.900;2022-07-06T13:49:14;981.42;;;876.67;;
25365;SDS011;13315;48.274;-1.900;2022-07-06T13:51:41;982.10;;;877.45;;
25365;SDS011;13315;48.274;-1.900;2022-07-06T13:54:07;983.88;;;879.28;;
25365;SDS011;13315;48.274;-1.900;2022-07-06T13:56:33;973.85;;;870.70;;
25365;SDS011;13315;48.274;-1.900;2022-07-06T13:59:00;965.25;;;864.25;;
25365;SDS011;13315;48.274;-1.900;2022-07-06T14:01:26;963.10;;;862.22;;